Time;durP1;ratioP1;P1;durP2;ratioP2;P2;SDS_P1;SDS_P2;PMS_P1;PMS_P2;Temp;Humidity;BMP_temperature;BMP_pressure;BME280_temperature;BME280_humidity;BME280_pressure;Samples;Min_cycle;Max_cycle;Signal;HPM_P1;HPM_P2
2022/10/16 00:01:58;;;;;;;13.55;2.08;;;12.30;99.90;;;;;;5095709;28;20079;-57
2022/10/16 00:04:24;;;;;;;7.63;2.40;;;12.30;99.90;;;;;;5095868;28;20089;-56
2022/10/16 00:06:49;;;;;;;8.52;2.15;;;12.20;99.90;;;;;;5095531;28;20097;-57
2022/10/16 00:09:15;;;;;;;8.45;2.10;;;12.30;99.90;;;;;;5095345;28;20052;-57
2022/10/16 00:11:41;;;;;;;14.75;2.10;;;12.30;99.90;;;;;;5095626;28;20044;-59
2022/10/16 00:14:13;;;;;;;8.65;1.85;;;12.40;99.90;;;;;;5095459;28;20498;-57
2022/10/16 00:16:39;;;;;;;7.70;1.90;;;12.20;99.90;;;;;;5095455;28;20080;-57
2022/10/16 00:19:05;;;;;;;8.82;1.70;;;12.20;99.90;;;;;;5095674;28;20051;-56
2022/10/16 00:21:31;;;;;;;9.63;2.05;;;12.30;99.90;;;;;;5095353;28;20392;-56
2022/10/16 00:24:01;;;;;;;8.02;2.00;;;12.30;99.90;;;;;;5094056;28;20123;-56
2022/10/16 00:26:28;;;;;;;7.60;1.73;;;12.20;99.90;;;;;;5095170;28;20499;-56
2022/10/16 00:28:54;;;;;;;8.68;1.90;;;12.10;99.90;;;;;;5095338;28;20369;-58
2022/10/16 00:31:21;;;;;;;6.78;1.90;;;12.10;99.90;;;;;;5095230;28;20043;-57
2022/10/16 00:33:47;;;;;;;10.13;2.65;;;12.10;99.90;;;;;;5095279;28;20055;-57
2022/10/16 00:36:16;;;;;;;7.65;2.30;;;12.30;99.90;;;;;;5093980;28;20040;-57
2022/10/16 00:38:43;;;;;;;6.45;2.13;;;12.20;99.90;;;;;;5093770;28;20044;-57
2022/10/16 00:41:13;;;;;;;8.32;2.15;;;12.20;99.90;;;;;;5073377;28;20048;-57
2022/10/16 00:43:56;;;;;;;8.02;2.05;;;12.10;99.90;;;;;;5074766;28;20102;-57
2022/10/16 00:46:23;;;;;;;12.35;2.42;;;12.10;99.90;;;;;;5074615;28;20040;-56
2022/10/16 00:49:01;;;;;;;10.48;2.30;;;12.10;99.90;;;;;;5074429;28;20051;-56
2022/10/16 00:51:33;;;;;;;7.68;2.00;;;12.20;99.90;;;;;;5074294;28;20040;-57
2022/10/16 00:54:01;;;;;;;9.38;1.77;;;12.20;99.90;;;;;;5074743;28;20116;-56
2022/10/16 00:56:26;;;;;;;7.57;2.00;;;12.00;99.90;;;;;;5074503;28;20446;-57
2022/10/16 00:58:52;;;;;;;9.15;1.90;;;12.20;99.90;;;;;;5078014;28;20032;-57
2022/10/16 01:01:18;;;;;;;9.15;2.10;;;12.10;99.90;;;;;;5094772;28;20044;-57
2022/10/16 01:03:44;;;;;;;8.38;2.10;;;12.30;99.90;;;;;;5093080;28;20130;-56
2022/10/16 01:06:50;;;;;;;8.95;1.70;;;12.10;99.90;;;;;;5094759;28;20044;-58
2022/10/16 01:09:21;;;;;;;7.25;1.90;;;12.30;99.90;;;;;;5094426;28;20087;-56
2022/10/16 01:11:55;;;;;;;8.57;2.08;;;12.30;99.90;;;;;;5094527;28;20506;-57
2022/10/16 01:14:43;;;;;;;6.85;1.75;;;12.10;99.90;;;;;;5094475;28;20047;-56
2022/10/16 01:17:17;;;;;;;9.55;2.22;;;12.10;99.90;;;;;;5094287;28;20362;-57
2022/10/16 01:19:57;;;;;;;6.93;1.55;;;12.20;99.90;;;;;;5094217;28;20039;-57
2022/10/16 01:22:31;;;;;;;8.10;2.50;;;12.30;99.90;;;;;;5094280;28;20085;-56
2022/10/16 01:25:03;;;;;;;7.38;1.70;;;12.30;99.90;;;;;;5093893;28;20043;-57
2022/10/16 01:27:30;;;;;;;;;;;12.30;99.90;;;;;;5094391;28;20040;-57
2022/10/16 01:30:15;;;;;;;9.10;1.98;;;12.30;99.90;;;;;;5094171;28;20049;-57
2022/10/16 01:32:54;;;;;;;8.98;1.83;;;12.20;99.90;;;;;;5093869;28;20047;-57
2022/10/16 01:35:34;;;;;;;6.63;1.95;;;12.30;99.90;;;;;;5094061;28;20040;-57
2022/10/16 01:38:20;;;;;;;6.97;2.08;;;12.40;99.90;;;;;;5093811;28;20032;-57
2022/10/16 01:40:50;;;;;;;4.28;1.60;;;12.30;99.90;;;;;;5075387;28;20036;-57
2022/10/16 01:43:22;;;;;;;8.20;1.98;;;12.50;99.90;;;;;;5073750;28;20094;-57
2022/10/16 01:45:49;;;;;;;7.45;1.90;;;12.40;99.90;;;;;;5073521;28;20477;-57
2022/10/16 01:48:18;;;;;;;7.80;1.70;;;12.50;99.90;;;;;;5073438;28;20105;-57
2022/10/16 01:50:52;;;;;;;7.75;2.50;;;12.40;99.90;;;;;;5073234;28;20105;-57
2022/10/16 01:53:18;;;;;;;10.70;2.83;;;12.60;99.90;;;;;;5073493;28;20100;-57
2022/10/16 01:55:47;;;;;;;6.57;1.63;;;12.60;99.90;;;;;;5076345;28;20056;-57
2022/10/16 01:58:14;;;;;;;7.35;1.90;;;12.50;99.90;;;;;;5093526;28;20054;-57
2022/10/16 02:00:44;;;;;;;7.32;1.90;;;12.40;99.90;;;;;;5074654;28;20047;-57
2022/10/16 02:03:12;;;;;;;6.53;1.88;;;12.50;99.90;;;;;;5073077;28;20508;-57
2022/10/16 02:05:52;;;;;;;6.75;1.95;;;12.40;99.90;;;;;;5073257;28;20033;-57
2022/10/16 02:08:18;;;;;;;7.00;1.70;;;12.50;99.90;;;;;;5073033;28;20484;-56
2022/10/16 02:10:44;;;;;;;3.85;1.67;;;12.50;99.90;;;;;;5072654;28;20052;-57
2022/10/16 02:13:21;;;;;;;6.78;1.90;;;12.70;99.90;;;;;;5072061;28;20045;-57
2022/10/16 02:15:47;;;;;;;7.25;1.85;;;12.60;99.90;;;;;;5072340;28;20037;-57
2022/10/16 02:18:13;;;;;;;4.93;1.77;;;12.60;99.90;;;;;;5073068;28;20036;-57
2022/10/16 02:21:03;;;;;;;8.13;2.20;;;12.70;99.90;;;;;;5072823;28;20416;-57
2022/10/16 02:24:02;;;;;;;7.10;1.98;;;12.70;99.90;;;;;;5072362;28;20404;-57
2022/10/16 02:26:41;;;;;;;6.43;1.63;;;12.70;99.90;;;;;;5072840;28;20384;-56
2022/10/16 02:29:12;;;;;;;7.20;1.73;;;12.70;99.90;;;;;;5072757;28;20041;-57
2022/10/16 02:31:43;;;;;;;7.20;2.13;;;12.80;99.90;;;;;;5072605;28;20560;-57
2022/10/16 02:34:11;;;;;;;7.53;1.80;;;12.80;99.90;;;;;;5072605;28;20175;-57
2022/10/16 02:36:39;;;;;;;10.55;1.95;;;12.70;99.90;;;;;;5072488;28;20119;-57
2022/10/16 02:39:06;;;;;;;6.70;2.03;;;12.80;99.90;;;;;;5076897;28;20516;-57
2022/10/16 02:41:32;;;;;;;6.45;1.60;;;12.70;99.90;;;;;;5092674;28;20047;-57
2022/10/16 02:43:58;;;;;;;8.52;2.20;;;12.80;99.90;;;;;;5092674;28;20404;-57
2022/10/16 02:46:23;;;;;;;7.25;1.90;;;12.70;99.90;;;;;;5092895;28;20040;-57
2022/10/16 02:48:49;;;;;;;8.40;1.98;;;12.70;99.90;;;;;;5092504;28;20048;-57
2022/10/16 02:51:14;;;;;;;8.77;2.10;;;12.70;99.90;;;;;;5092412;28;20039;-57
2022/10/16 02:53:40;;;;;;;5.22;1.65;;;12.80;99.90;;;;;;5091262;28;20043;-57
2022/10/16 02:56:06;;;;;;;8.15;2.00;;;12.60;99.90;;;;;;5092772;28;20044;-57
2022/10/16 02:58:31;;;;;;;6.47;1.88;;;12.60;99.90;;;;;;5092614;28;20036;-58
2022/10/16 03:00:57;;;;;;;7.28;1.90;;;12.60;99.90;;;;;;5091418;28;20067;-57
2022/10/16 03:03:23;;;;;;;6.25;1.90;;;12.70;99.90;;;;;;5092326;28;20052;-58
2022/10/16 03:05:48;;;;;;;5.63;1.80;;;12.50;99.90;;;;;;5092281;28;20093;-57
2022/10/16 03:08:14;;;;;;;6.45;2.20;;;12.60;99.90;;;;;;5091970;28;20051;-58
2022/10/16 03:10:40;;;;;;;7.03;2.22;;;12.60;99.90;;;;;;5092064;28;20400;-57
2022/10/16 03:13:05;;;;;;;6.43;2.13;;;12.60;99.90;;;;;;5092437;28;20491;-58
2022/10/16 03:15:31;;;;;;;6.55;2.05;;;12.60;99.90;;;;;;5092505;28;20468;-59
2022/10/16 03:18:00;;;;;;;5.45;2.08;;;12.50;99.90;;;;;;5092500;28;20047;-58
2022/10/16 03:20:26;;;;;;;7.80;1.85;;;12.40;99.90;;;;;;5091008;28;20048;-58
2022/10/16 03:22:52;;;;;;;6.35;1.95;;;12.50;99.90;;;;;;5091139;28;20059;-57
2022/10/16 03:25:18;;;;;;;6.85;1.75;;;12.30;99.90;;;;;;5090838;28;20412;-58
2022/10/16 03:27:43;;;;;;;9.75;1.88;;;12.30;99.90;;;;;;5096471;28;20043;-57
2022/10/16 03:30:09;;;;;;;6.60;1.92;;;12.40;99.90;;;;;;5096507;28;20036;-58
2022/10/16 03:32:35;;;;;;;5.28;1.73;;;12.40;99.90;;;;;;5096412;28;20372;-58
2022/10/16 03:35:01;;;;;;;10.55;2.05;;;12.30;99.90;;;;;;5096217;28;20089;-58
2022/10/16 03:37:26;;;;;;;6.13;1.65;;;12.40;99.90;;;;;;5096289;28;20403;-57
2022/10/16 03:39:52;;;;;;;6.60;2.13;;;12.30;99.90;;;;;;5084961;28;20048;-56
2022/10/16 03:42:18;;;;;;;5.30;2.00;;;12.30;99.90;;;;;;5075838;28;20416;-57
2022/10/16 03:44:43;;;;;;;7.75;2.00;;;12.30;99.90;;;;;;5075856;28;20043;-57
2022/10/16 03:47:09;;;;;;;10.27;2.28;;;12.30;99.90;;;;;;5074833;28;20036;-57
2022/10/16 03:49:34;;;;;;;4.93;1.77;;;12.20;99.90;;;;;;5075474;28;20040;-57
2022/10/16 03:52:00;;;;;;;6.80;2.20;;;12.30;99.90;;;;;;5074488;28;20039;-57
2022/10/16 03:54:26;;;;;;;8.43;2.63;;;12.20;99.90;;;;;;5075545;28;20101;-57
2022/10/16 03:56:51;;;;;;;6.57;2.25;;;12.10;99.90;;;;;;5075764;28;20044;-57
2022/10/16 03:59:17;;;;;;;5.45;2.10;;;12.10;99.90;;;;;;5081396;28;20411;-57
2022/10/16 04:01:43;;;;;;;7.07;2.10;;;12.20;99.90;;;;;;5096041;28;20487;-57
2022/10/16 04:04:08;;;;;;;8.75;2.17;;;12.20;99.90;;;;;;5095847;28;20036;-57
2022/10/16 04:06:34;;;;;;;6.70;2.30;;;12.10;99.90;;;;;;5095648;28;20408;-57
2022/10/16 04:09:00;;;;;;;7.13;2.10;;;12.10;99.90;;;;;;5094163;28;20039;-57
2022/10/16 04:11:25;;;;;;;5.68;1.67;;;12.10;99.90;;;;;;5095720;28;20123;-56
2022/10/16 04:13:51;;;;;;;6.05;2.05;;;12.10;99.90;;;;;;5095443;28;20442;-57
2022/10/16 04:16:16;;;;;;;5.72;1.88;;;12.20;99.90;;;;;;5095418;28;20071;-57
2022/10/16 04:18:42;;;;;;;5.82;1.77;;;12.00;99.90;;;;;;5095380;28;20062;-57
2022/10/16 04:21:08;;;;;;;6.57;1.92;;;12.20;99.90;;;;;;5095570;28;20097;-57
2022/10/16 04:23:34;;;;;;;5.85;2.08;;;12.20;99.90;;;;;;5094229;28;20068;-57
2022/10/16 04:26:00;;;;;;;6.00;2.10;;;12.20;99.90;;;;;;5095435;28;20396;-57
2022/10/16 04:28:25;;;;;;;7.55;2.72;;;12.10;99.90;;;;;;5095502;28;20046;-57
2022/10/16 04:30:51;;;;;;;6.68;1.90;;;12.20;99.90;;;;;;5095447;28;20047;-57
2022/10/16 04:33:17;;;;;;;7.65;2.22;;;12.20;99.90;;;;;;5095360;28;20094;-57
2022/10/16 04:35:42;;;;;;;6.82;1.98;;;12.10;99.90;;;;;;5095318;28;20055;-56
2022/10/16 04:38:08;;;;;;;6.65;1.98;;;12.20;99.90;;;;;;5094511;28;20483;-57
2022/10/16 04:40:36;;;;;;;6.88;2.03;;;12.20;99.90;;;;;;5077910;28;20484;-57
2022/10/16 04:43:02;;;;;;;7.78;2.17;;;12.30;99.90;;;;;;5074860;28;20041;-57
2022/10/16 04:45:28;;;;;;;5.53;1.88;;;12.30;99.90;;;;;;5074769;28;20047;-57
2022/10/16 04:47:57;;;;;;;8.25;2.22;;;12.30;99.90;;;;;;5074893;28;20044;-57
2022/10/16 04:50:23;;;;;;;5.55;2.13;;;12.20;99.90;;;;;;5074539;28;20045;-56
2022/10/16 04:52:49;;;;;;;7.72;2.30;;;12.20;99.90;;;;;;5074330;28;20090;-57
2022/10/16 04:55:15;;;;;;;6.65;2.25;;;12.30;99.90;;;;;;5073162;28;20143;-58
2022/10/16 04:57:41;;;;;;;9.93;2.40;;;12.30;99.90;;;;;;5074729;28;20119;-58
2022/10/16 05:00:07;;;;;;;8.13;2.30;;;12.30;99.90;;;;;;5088590;28;20541;-57
2022/10/16 05:02:33;;;;;;;5.97;1.90;;;12.30;99.90;;;;;;5094661;28;20401;-56
2022/10/16 05:04:59;;;;;;;5.72;2.05;;;12.30;99.90;;;;;;5094602;28;20036;-57
2022/10/16 05:07:25;;;;;;;8.50;2.45;;;12.40;99.90;;;;;;5094729;28;20047;-57
2022/10/16 05:09:51;;;;;;;5.88;1.88;;;12.50;99.90;;;;;;5094408;28;20063;-58
2022/10/16 05:12:17;;;;;;;8.07;2.17;;;12.40;99.90;;;;;;5094738;28;20054;-57
2022/10/16 05:14:42;;;;;;;6.05;1.80;;;12.40;99.90;;;;;;5094635;28;20372;-58
2022/10/16 05:17:08;;;;;;;7.88;2.10;;;12.40;99.90;;;;;;5094613;28;20040;-54
2022/10/16 05:19:33;;;;;;;5.43;1.92;;;12.40;99.90;;;;;;5094485;28;20047;-55
2022/10/16 05:21:59;;;;;;;6.00;2.10;;;12.50;99.90;;;;;;5093926;28;20036;-56
2022/10/16 05:24:25;;;;;;;6.03;2.28;;;12.60;99.90;;;;;;5094368;28;20039;-56
2022/10/16 05:26:51;;;;;;;8.13;2.42;;;12.50;99.90;;;;;;5094250;28;20040;-57
2022/10/16 05:29:17;;;;;;;6.05;1.95;;;12.40;99.90;;;;;;5093950;28;20050;-58
2022/10/16 05:31:42;;;;;;;6.45;2.42;;;12.60;99.90;;;;;;5094093;28;20040;-57
2022/10/16 05:34:08;;;;;;;6.45;2.55;;;12.50;99.90;;;;;;5093855;28;20450;-57
2022/10/16 05:36:34;;;;;;;10.13;2.70;;;12.50;99.90;;;;;;5094183;28;20565;-57
2022/10/16 05:38:59;;;;;;;10.18;2.60;;;12.50;99.90;;;;;;5090264;28;20024;-57
2022/10/16 05:41:26;;;;;;;7.32;2.53;;;12.30;99.90;;;;;;5073760;28;20063;-57
2022/10/16 05:43:52;;;;;;;8.98;2.92;;;12.30;99.90;;;;;;5073455;28;20044;-56
2022/10/16 05:46:18;;;;;;;6.43;2.30;;;12.30;99.90;;;;;;5073653;28;20041;-57
2022/10/16 05:48:44;;;;;;;6.60;2.97;;;12.30;99.90;;;;;;5073198;28;20270;-56
2022/10/16 05:51:12;;;;;;;8.45;2.67;;;12.20;99.90;;;;;;5072904;28;20040;-57
2022/10/16 05:53:39;;;;;;;10.82;3.03;;;12.30;99.90;;;;;;5073445;28;20040;-57
2022/10/16 05:56:05;;;;;;;9.40;3.05;;;12.30;99.90;;;;;;5073383;28;20037;-57
2022/10/16 05:58:35;;;;;;;10.77;2.90;;;12.20;99.90;;;;;;5072211;28;20362;-58
2022/10/16 06:01:06;;;;;;;7.15;2.65;;;12.40;99.90;;;;;;5085530;28;20036;-57
2022/10/16 06:03:33;;;;;;;9.23;3.05;;;12.20;99.90;;;;;;5092411;28;20104;-59
2022/10/16 06:05:59;;;;;;;6.20;2.55;;;12.30;99.90;;;;;;5092371;28;20147;-57
2022/10/16 06:08:25;;;;;;;7.93;3.78;;;12.10;99.90;;;;;;5092261;28;20181;-57
2022/10/16 06:11:02;;;;;;;7.07;2.70;;;12.30;99.90;;;;;;5092689;28;20075;-58
2022/10/16 06:13:27;;;;;;;7.22;2.83;;;12.10;99.90;;;;;;5092606;28;20039;-56
2022/10/16 06:15:56;;;;;;;7.35;2.97;;;12.40;99.90;;;;;;5092349;28;20400;-56
2022/10/16 06:18:22;;;;;;;7.85;2.97;;;12.20;99.90;;;;;;5092455;28;20040;-56
2022/10/16 06:20:47;;;;;;;8.00;2.90;;;12.20;99.90;;;;;;5092224;28;20050;-57
2022/10/16 06:23:13;;;;;;;11.30;3.15;;;12.10;99.90;;;;;;5092254;28;20040;-57
2022/10/16 06:25:39;;;;;;;8.65;3.15;;;12.20;99.90;;;;;;5092393;28;20032;-57
2022/10/16 06:28:04;;;;;;;8.73;2.95;;;12.20;99.90;;;;;;5092142;28;20039;-57
2022/10/16 06:30:30;;;;;;;7.60;3.10;;;12.40;99.90;;;;;;5091966;28;20043;-57
2022/10/16 06:32:55;;;;;;;7.63;2.88;;;12.20;99.90;;;;;;5091998;28;20047;-57
2022/10/16 06:35:21;;;;;;;8.82;2.97;;;12.40;99.90;;;;;;5091721;28;20046;-57
2022/10/16 06:37:47;;;;;;;6.88;3.00;;;12.30;99.90;;;;;;5091295;28;20051;-57
2022/10/16 06:40:14;;;;;;;8.55;3.70;;;12.50;99.90;;;;;;5091281;28;20044;-56
2022/10/16 06:42:40;;;;;;;7.95;2.88;;;12.50;99.90;;;;;;5091611;28;20380;-56
2022/10/16 06:45:06;;;;;;;8.77;3.20;;;12.50;99.90;;;;;;5092016;28;20104;-56
2022/10/16 06:47:32;;;;;;;9.60;3.00;;;12.30;99.90;;;;;;5090612;28;20066;-57
2022/10/16 06:49:58;;;;;;;9.18;3.40;;;12.40;99.90;;;;;;5091546;28;20041;-57
2022/10/16 06:52:23;;;;;;;9.25;3.08;;;12.40;99.90;;;;;;5092009;28;20032;-57
2022/10/16 06:54:50;;;;;;;7.57;2.70;;;12.40;99.90;;;;;;5091926;28;20683;-57
2022/10/16 06:57:21;;;;;;;9.57;3.10;;;12.40;99.90;;;;;;5091829;28;20043;-57
2022/10/16 06:59:47;;;;;;;8.55;2.88;;;12.40;99.90;;;;;;5091803;28;20036;-56
2022/10/16 07:02:13;;;;;;;9.25;3.35;;;12.50;99.90;;;;;;5091522;28;20039;-57
2022/10/16 07:04:38;;;;;;;9.57;2.92;;;12.50;99.90;;;;;;5091609;28;20468;-58
2022/10/16 07:07:04;;;;;;;8.52;3.17;;;12.60;99.90;;;;;;5091657;28;20044;-56
2022/10/16 07:09:29;;;;;;;10.95;3.22;;;12.50;99.90;;;;;;5091158;28;20052;-56
2022/10/16 07:11:55;;;;;;;7.93;2.67;;;12.70;99.90;;;;;;5090117;28;20423;-56
2022/10/16 07:14:21;;;;;;;7.93;2.42;;;12.60;99.90;;;;;;5091366;28;20105;-57
2022/10/16 07:16:48;;;;;;;8.02;3.05;;;12.80;99.90;;;;;;5091707;28;20494;-57
2022/10/16 07:19:15;;;;;;;6.30;2.65;;;12.80;99.90;;;;;;5091675;28;20024;-58
2022/10/16 07:21:41;;;;;;;8.43;2.85;;;12.50;99.90;;;;;;5091805;28;20483;-57
2022/10/16 07:24:12;;;;;;;8.45;2.90;;;12.70;99.90;;;;;;5091361;28;20043;-56
2022/10/16 07:26:39;;;;;;;11.15;4.38;;;12.80;99.90;;;;;;5091317;28;20783;-57
2022/10/16 07:29:07;;;;;;;5.25;2.25;;;12.50;99.90;;;;;;5091723;28;20507;-57
2022/10/16 07:31:33;;;;;;;8.98;2.42;;;12.60;99.90;;;;;;5091171;28;20036;-56
2022/10/16 07:33:59;;;;;;;7.78;2.08;;;12.80;99.90;;;;;;5081931;28;20043;-56
2022/10/16 07:36:25;;;;;;;6.22;2.28;;;12.80;99.90;;;;;;5080862;28;20021;-57
2022/10/16 07:38:51;;;;;;;6.13;2.03;;;12.80;99.90;;;;;;5079750;28;20499;-57
2022/10/16 07:41:18;;;;;;;7.50;2.30;;;12.70;99.90;;;;;;5091027;28;20047;-56
2022/10/16 07:43:49;;;;;;;8.20;2.15;;;12.80;99.90;;;;;;5091354;28;20122;-57
2022/10/16 07:46:16;;;;;;;8.15;2.30;;;12.80;99.90;;;;;;5079722;28;20449;-56
2022/10/16 07:48:45;;;;;;;5.53;2.20;;;12.60;99.90;;;;;;5077999;28;20036;-56
2022/10/16 07:51:12;;;;;;;6.35;2.60;;;12.80;99.90;;;;;;5079500;28;20414;-56
2022/10/16 07:53:38;;;;;;;5.78;2.35;;;12.80;99.90;;;;;;5081201;28;20489;-57
2022/10/16 07:56:06;;;;;;;7.70;2.42;;;12.50;99.90;;;;;;5081948;28;20043;-57
2022/10/16 07:58:32;;;;;;;9.13;2.85;;;12.70;99.90;;;;;;5080124;28;20034;-57
2022/10/16 08:00:58;;;;;;;8.50;2.60;;;12.70;99.90;;;;;;5080039;28;20035;-57
2022/10/16 08:03:25;;;;;;;8.18;2.47;;;12.50;99.90;;;;;;5081705;28;20054;-57
2022/10/16 08:05:51;;;;;;;7.18;2.85;;;12.60;99.90;;;;;;5079899;28;20036;-56
2022/10/16 08:08:18;;;;;;;8.43;2.65;;;12.60;99.90;;;;;;5080629;28;20460;-57
2022/10/16 08:10:44;;;;;;;7.50;2.75;;;12.80;99.90;;;;;;5078550;28;20056;-57
2022/10/16 08:13:10;;;;;;;8.02;3.00;;;12.90;99.90;;;;;;5089690;28;20044;-56
2022/10/16 08:15:36;;;;;;;10.07;3.63;;;13.00;99.90;;;;;;5094388;28;20084;-57
2022/10/16 08:18:03;;;;;;;8.65;2.85;;;13.20;99.90;;;;;;5094610;28;20040;-57
2022/10/16 08:20:30;;;;;;;8.85;3.15;;;13.40;99.90;;;;;;5094788;28;20501;-57
2022/10/16 08:22:56;;;;;;;8.10;3.40;;;13.50;99.90;;;;;;5094392;28;20452;-56
2022/10/16 08:25:23;;;;;;;7.95;2.85;;;13.50;99.90;;;;;;5093796;28;20044;-58
2022/10/16 08:27:49;;;;;;;7.57;2.95;;;13.30;99.90;;;;;;5095276;28;20602;-58
2022/10/16 08:30:16;;;;;;;8.63;3.30;;;13.40;99.90;;;;;;5094019;28;20040;-56
2022/10/16 08:32:42;;;;;;;6.50;2.97;;;13.30;99.90;;;;;;5095092;28;20488;-57
2022/10/16 08:35:11;;;;;;;6.53;2.10;;;13.20;99.90;;;;;;5095045;28;20033;-56
2022/10/16 08:37:37;;;;;;;7.80;2.08;;;13.50;99.90;;;;;;5095071;28;20036;-57
2022/10/16 08:40:06;;;;;;;7.75;2.53;;;13.40;99.90;;;;;;5081750;28;20040;-57
2022/10/16 08:42:48;;;;;;;8.13;2.35;;;13.40;99.90;;;;;;5072561;28;20055;-57
2022/10/16 08:45:23;;;;;;;7.07;2.38;;;13.60;99.90;;;;;;5073770;28;20045;-57
2022/10/16 08:47:54;;;;;;;6.93;2.42;;;13.50;99.90;;;;;;5072881;28;20438;-57
2022/10/16 08:50:27;;;;;;;9.05;2.75;;;13.70;99.90;;;;;;5073703;28;20040;-57
2022/10/16 08:52:54;;;;;;;7.90;2.40;;;13.50;99.90;;;;;;5073735;28;20041;-56
2022/10/16 08:55:29;;;;;;;9.70;2.40;;;13.70;99.90;;;;;;5073645;28;20077;-56
2022/10/16 08:57:54;;;;;;;7.03;2.60;;;13.40;99.90;;;;;;5073507;28;20044;-56
2022/10/16 09:00:21;;;;;;;7.25;2.65;;;13.60;99.90;;;;;;5089535;28;20036;-61
2022/10/16 09:03:07;;;;;;;9.05;2.38;;;13.50;99.90;;;;;;5092611;28;20139;-56
2022/10/16 09:05:53;;;;;;;13.73;3.28;;;13.50;99.90;;;;;;5093452;28;20503;-56
2022/10/16 09:08:34;;;;;;;8.88;2.20;;;13.60;99.90;;;;;;5093897;28;20044;-56
2022/10/16 09:11:20;;;;;;;9.15;1.90;;;13.50;99.90;;;;;;5083174;28;20056;-56
2022/10/16 09:14:04;;;;;;;8.98;2.22;;;13.60;99.90;;;;;;5082752;28;20043;-56
2022/10/16 09:16:32;;;;;;;9.23;2.40;;;13.70;99.90;;;;;;5084155;28;20050;-56
2022/10/16 09:19:09;;;;;;;8.07;2.15;;;13.70;99.90;;;;;;5073343;28;20115;-55
2022/10/16 09:21:42;;;;;;;8.55;2.08;;;13.90;99.90;;;;;;5073798;28;20044;-57
2022/10/16 09:24:13;;;;;;;9.80;2.35;;;13.70;99.90;;;;;;5093237;28;20058;-58
2022/10/16 09:26:38;;;;;;;12.05;2.35;;;13.80;99.90;;;;;;5093337;28;20598;-57
2022/10/16 09:29:04;;;;;;;12.38;2.55;;;13.80;99.90;;;;;;5091726;28;20039;-57
2022/10/16 09:31:30;;;;;;;8.35;2.25;;;14.00;99.90;;;;;;5093319;28;20051;-57
2022/10/16 09:34:00;;;;;;;10.85;2.20;;;14.10;99.90;;;;;;5091874;28;20494;-57
2022/10/16 09:36:28;;;;;;;12.77;2.30;;;13.90;99.90;;;;;;5093165;28;20127;-57
2022/10/16 09:39:06;;;;;;;12.55;2.33;;;14.00;99.90;;;;;;5088580;28;20079;-57
2022/10/16 09:41:36;;;;;;;12.52;2.63;;;14.00;99.90;;;;;;5072896;28;20501;-57
2022/10/16 09:44:03;;;;;;;10.68;2.60;;;14.10;99.90;;;;;;5072746;28;20072;-57
2022/10/16 09:46:34;;;;;;;10.88;2.00;;;14.10;99.90;;;;;;5071835;28;20452;-57
2022/10/16 09:49:05;;;;;;;8.52;1.80;;;14.30;99.90;;;;;;5072635;28;20155;-57
2022/10/16 09:51:36;;;;;;;13.90;1.95;;;14.40;99.90;;;;;;5072622;28;20386;-57
2022/10/16 09:54:17;;;;;;;11.57;2.33;;;14.60;99.90;;;;;;5072666;28;20047;-57
2022/10/16 09:56:45;;;;;;;13.40;2.22;;;14.60;99.90;;;;;;5072373;28;20474;-57
2022/10/16 09:59:15;;;;;;;10.77;3.08;;;14.80;99.90;;;;;;5072715;28;20035;-57
2022/10/16 10:01:52;;;;;;;10.48;1.80;;;14.80;99.90;;;;;;5072640;28;20113;-57
2022/10/16 10:04:20;;;;;;;16.30;2.25;;;14.80;99.90;;;;;;5076446;28;20039;-57
2022/10/16 10:06:55;;;;;;;8.38;1.90;;;15.00;99.90;;;;;;5071528;28;20043;-57
2022/10/16 10:09:38;;;;;;;11.60;1.73;;;15.00;99.90;;;;;;5071363;28;20056;-57
2022/10/16 10:12:21;;;;;;;13.38;2.13;;;15.10;99.90;;;;;;5072045;28;20048;-59
2022/10/16 10:14:50;;;;;;;18.40;2.60;;;15.20;99.90;;;;;;5083072;28;20032;-57
2022/10/16 10:17:19;;;;;;;11.32;2.15;;;15.30;99.90;;;;;;5092312;28;20044;-57
2022/10/16 10:19:55;;;;;;;14.98;2.60;;;15.30;99.90;;;;;;5092089;28;20124;-57
2022/10/16 10:22:42;;;;;;;12.95;2.83;;;15.20;99.90;;;;;;5092435;28;20051;-57
2022/10/16 10:25:14;;;;;;;8.07;1.50;;;15.40;99.90;;;;;;5091125;28;20048;-57
2022/10/16 10:27:46;;;;;;;;;;;15.50;99.90;;;;;;5092640;28;20097;-57
2022/10/16 10:30:22;;;;;;;13.30;2.28;;;15.50;99.90;;;;;;5092458;28;19915;-57
2022/10/16 10:33:06;;;;;;;7.93;1.48;;;15.70;99.90;;;;;;5090771;28;20047;-57
2022/10/16 10:35:39;;;;;;;16.17;2.83;;;15.80;99.90;;;;;;5091604;28;20044;-57
2022/10/16 10:38:19;;;;;;;13.52;1.80;;;15.80;99.90;;;;;;5092169;28;20146;-57
2022/10/16 10:40:56;;;;;;;12.48;1.77;;;15.80;99.90;;;;;;5073296;28;20040;-57
2022/10/16 10:43:55;;;;;;;8.10;1.70;;;15.60;99.90;;;;;;5053658;28;20048;-57
2022/10/16 10:46:44;;;;;;;11.60;2.05;;;15.80;99.90;;;;;;5053701;28;20488;-60
2022/10/16 10:49:44;;;;;;;15.68;2.50;;;15.80;99.90;;;;;;5083601;28;20093;-58
2022/10/16 10:52:33;;;;;;;14.27;2.63;;;15.90;99.90;;;;;;5083940;28;20048;-57
2022/10/16 10:54:59;;;;;;;9.15;1.83;;;15.90;99.90;;;;;;5070756;28;20040;-56
2022/10/16 10:58:01;;;;;;;13.20;2.35;;;15.80;99.90;;;;;;5071677;28;20039;-57
2022/10/16 11:00:59;;;;;;;14.02;2.35;;;15.90;99.90;;;;;;5073043;28;20097;-56
2022/10/16 11:04:01;;;;;;;10.15;2.47;;;16.00;99.90;;;;;;5071576;28;20555;-56
2022/10/16 11:06:32;;;;;;;12.32;2.75;;;16.20;99.90;;;;;;5071853;28;20052;-56
2022/10/16 11:09:12;;;;;;;14.03;2.50;;;16.20;99.90;;;;;;5071886;28;20051;-56
2022/10/16 11:11:49;;;;;;;10.30;1.98;;;16.10;99.90;;;;;;5071919;28;20044;-56
2022/10/16 11:14:20;;;;;;;13.80;2.28;;;15.70;99.90;;;;;;5070935;28;20056;-56
2022/10/16 11:16:56;;;;;;;14.13;2.65;;;15.70;99.90;;;;;;5072304;28;20043;-56
2022/10/16 11:19:26;;;;;;;9.55;1.73;;;15.50;99.90;;;;;;5072120;28;20032;-56
2022/10/16 11:21:59;;;;;;;11.57;2.72;;;15.40;99.90;;;;;;5072027;28;20396;-57
2022/10/16 11:25:03;;;;;;;14.73;2.63;;;15.20;99.90;;;;;;5072166;28;20047;-57
2022/10/16 11:27:54;;;;;;;12.82;1.67;;;15.10;99.90;;;;;;5059585;28;20056;-57
2022/10/16 11:30:33;;;;;;;12.47;2.47;;;15.00;99.90;;;;;;5051561;28;20087;-56
2022/10/16 11:33:05;;;;;;;14.30;2.03;;;14.90;99.90;;;;;;5071857;28;20036;-56
2022/10/16 11:35:43;;;;;;;10.25;2.28;;;14.90;99.90;;;;;;5071787;28;20072;-56
2022/10/16 11:38:37;;;;;;;16.40;2.28;;;14.80;99.90;;;;;;5072088;28;20043;-57
2022/10/16 11:41:21;;;;;;;10.77;2.22;;;14.80;99.90;;;;;;5071039;28;20056;-57
2022/10/16 11:44:09;;;;;;;14.75;1.88;;;14.80;99.90;;;;;;5071959;28;20055;-57
2022/10/16 11:46:38;;;;;;;11.48;2.00;;;15.10;99.90;;;;;;5072266;28;20102;-57
2022/10/16 11:49:12;;;;;;;12.90;2.25;;;15.40;99.90;;;;;;5075692;28;20706;-57
2022/10/16 11:51:48;;;;;;;13.25;2.42;;;15.60;99.90;;;;;;5075777;28;20098;-56
2022/10/16 11:54:22;;;;;;;12.02;2.42;;;15.90;99.90;;;;;;5075001;28;20473;-57
2022/10/16 11:56:54;;;;;;;15.27;2.85;;;15.90;99.90;;;;;;5073664;28;20076;-57
2022/10/16 11:59:27;;;;;;;14.15;2.50;;;16.10;99.90;;;;;;5081606;28;20433;-58
2022/10/16 12:02:06;;;;;;;13.60;2.10;;;16.20;99.90;;;;;;5094470;28;20042;-58
2022/10/16 12:04:56;;;;;;;15.90;2.58;;;16.30;99.90;;;;;;5094498;28;20373;-56
2022/10/16 12:07:32;;;;;;;14.90;3.30;;;16.20;99.90;;;;;;5094628;28;20040;-56
2022/10/16 12:10:09;;;;;;;11.90;2.40;;;16.10;99.90;;;;;;5094456;28;20372;-56
2022/10/16 12:12:34;;;;;;;9.68;1.73;;;15.80;99.90;;;;;;5093334;28;20095;-56
2022/10/16 12:15:21;;;;;;;18.23;2.92;;;15.90;99.90;;;;;;5094931;28;20072;-57
2022/10/16 12:17:46;;;;;;;13.43;2.13;;;16.10;99.90;;;;;;5094626;28;20043;-56
2022/10/16 12:20:12;;;;;;;9.02;1.52;;;16.10;99.90;;;;;;5093130;28;20035;-56
2022/10/16 12:22:48;;;;;;;11.95;1.92;;;16.10;99.90;;;;;;5094586;28;20051;-56
2022/10/16 12:25:28;;;;;;;9.90;1.35;;;16.10;99.90;;;;;;5094770;28;20142;-56
2022/10/16 12:28:02;;;;;;;9.30;1.77;;;16.10;99.90;;;;;;5094497;28;20082;-58
2022/10/16 12:30:30;;;;;;;10.32;2.03;;;16.20;99.90;;;;;;5094105;28;20047;-58
2022/10/16 12:33:19;;;;;;;9.68;1.60;;;16.10;99.90;;;;;;5094460;28;20040;-58
2022/10/16 12:35:45;;;;;;;13.48;2.35;;;16.10;99.90;;;;;;5094394;28;20679;-56
2022/10/16 12:38:46;;;;;;;11.10;1.58;;;16.10;99.90;;;;;;5094380;28;20115;-57
2022/10/16 12:41:14;;;;;;;10.82;1.38;;;15.90;99.90;;;;;;5073027;28;20048;-56
2022/10/16 12:43:47;;;;;;;12.93;2.15;;;15.80;99.90;;;;;;5073942;28;20044;-56
2022/10/16 12:46:13;;;;;;;10.75;1.75;;;15.60;99.90;;;;;;5073926;28;20056;-56
2022/10/16 12:48:41;;;;;;;11.98;1.60;;;15.50;99.90;;;;;;5072458;28;20041;-57
2022/10/16 12:51:29;;;;;;;9.70;1.60;;;15.60;99.90;;;;;;5079057;28;20040;-57
2022/10/16 12:54:20;;;;;;;11.27;1.95;;;15.60;99.90;;;;;;5085852;28;20117;-57
2022/10/16 12:57:22;;;;;;;12.73;2.20;;;15.60;99.90;;;;;;5079495;28;20048;-56
2022/10/16 13:00:12;;;;;;;11.25;2.25;;;15.60;99.90;;;;;;5084493;28;20124;-57
2022/10/16 13:03:13;;;;;;;6.72;1.25;;;15.40;99.90;;;;;;5094031;28;20028;-56
2022/10/16 13:05:45;;;;;;;13.70;1.95;;;15.40;99.90;;;;;;5093642;28;20040;-57